createdAt,value
2022-10-25T00:00:35.401Z,10.9
2022-10-25T00:03:01.443Z,10.9
2022-10-25T00:05:27.537Z,10.9
2022-10-25T00:07:53.661Z,10.9
2022-10-25T00:10:19.799Z,10.9
2022-10-25T00:12:45.878Z,10.9
2022-10-25T00:15:11.919Z,10.8
2022-10-25T00:17:38.055Z,10.8
2022-10-25T00:20:04.161Z,10.8
2022-10-25T00:22:30.244Z,10.8
2022-10-25T00:24:56.353Z,10.8
2022-10-25T00:27:22.455Z,10.8
2022-10-25T00:29:48.502Z,10.8
2022-10-25T00:32:13.610Z,10.9
2022-10-25T00:34:39.730Z,10.9
2022-10-25T00:37:05.811Z,11
2022-10-25T00:39:31.945Z,11
2022-10-25T00:41:57.986Z,11
2022-10-25T00:44:24.147Z,11.1
2022-10-25T00:46:50.250Z,11.1
2022-10-25T00:49:16.291Z,11.1
2022-10-25T00:51:42.391Z,11.1
2022-10-25T00:54:08.466Z,11.1
2022-10-25T00:56:34.581Z,11.1
2022-10-25T00:59:00.664Z,11.1
2022-10-25T01:01:26.799Z,11.1
2022-10-25T01:03:51.872Z,11.2
2022-10-25T01:06:17.967Z,11.2
2022-10-25T01:08:44.069Z,11.2
2022-10-25T01:13:36.271Z,11.3
2022-10-25T01:16:02.365Z,11.3
2022-10-25T01:18:28.473Z,11.4
2022-10-25T01:20:54.532Z,11.4
2022-10-25T01:23:20.652Z,11.4
2022-10-25T01:25:46.721Z,11.4
2022-10-25T01:28:12.811Z,11.4
2022-10-25T01:30:38.921Z,11.4
2022-10-25T01:33:05.005Z,11.5
2022-10-25T01:35:30.170Z,11.5
2022-10-25T01:37:56.237Z,11.5
2022-10-25T01:40:22.363Z,11.4
2022-10-25T01:42:48.408Z,11.4
2022-10-25T01:45:14.573Z,11.3
2022-10-25T01:47:40.609Z,11.3
2022-10-25T01:50:06.703Z,11.2
2022-10-25T01:52:32.825Z,11.2
2022-10-25T01:54:58.887Z,11.1
2022-10-25T01:57:25.010Z,11.1
2022-10-25T01:59:51.082Z,11.1
2022-10-25T02:02:17.214Z,11
2022-10-25T02:04:43.257Z,11
2022-10-25T02:07:08.423Z,10.9
2022-10-25T02:09:34.502Z,10.9
2022-10-25T02:12:00.556Z,10.9
2022-10-25T02:14:26.742Z,10.8
2022-10-25T02:16:52.759Z,10.8
2022-10-25T02:19:18.901Z,10.8
2022-10-25T02:21:44.944Z,10.8
2022-10-25T02:24:11.037Z,10.7
2022-10-25T02:26:37.154Z,10.7
2022-10-25T02:29:03.232Z,10.6
2022-10-25T02:31:29.345Z,10.6
2022-10-25T02:33:55.445Z,10.6
2022-10-25T02:36:21.554Z,10.5
2022-10-25T02:46:04.940Z,10.4
2022-10-25T02:48:30.083Z,10.4
2022-10-25T02:50:55.197Z,10.3
2022-10-25T02:53:20.272Z,10.3
2022-10-25T02:55:45.442Z,10.3
2022-10-25T02:58:10.539Z,10.3
2022-10-25T03:00:35.617Z,10.3
2022-10-25T03:03:00.746Z,10.3
2022-10-25T03:05:25.890Z,10.3
2022-10-25T03:07:51.945Z,10.3
2022-10-25T03:10:18.090Z,10.3
2022-10-25T03:12:44.133Z,10.3
2022-10-25T03:15:10.294Z,10.2
2022-10-25T03:17:36.326Z,10.2
2022-10-25T03:20:02.436Z,10.2
2022-10-25T03:22:28.529Z,10.2
2022-10-25T03:24:54.617Z,10.1
2022-10-25T03:27:20.730Z,10.1
2022-10-25T03:29:45.833Z,10.1
2022-10-25T03:32:10.946Z,10
2022-10-25T03:34:37.057Z,10
2022-10-25T03:37:03.132Z,10
2022-10-25T03:39:29.257Z,10
2022-10-25T03:41:55.329Z,10
2022-10-25T03:44:21.462Z,9.9
2022-10-25T03:46:47.506Z,9.9
2022-10-25T03:49:13.667Z,9.9
2022-10-25T03:51:39.714Z,9.9
2022-10-25T03:54:05.805Z,9.8
2022-10-25T03:56:31.929Z,9.8
2022-10-25T03:58:58.005Z,9.8
2022-10-25T04:01:24.111Z,9.8
2022-10-25T04:03:49.195Z,9.8
2022-10-25T04:06:15.288Z,9.7
2022-10-25T04:08:41.397Z,9.7
2022-10-25T04:11:07.480Z,9.7
2022-10-25T04:13:33.597Z,9.7
2022-10-25T04:15:59.674Z,9.7
2022-10-25T04:18:25.800Z,9.7
2022-10-25T04:20:50.885Z,9.6
2022-10-25T04:23:16.001Z,9.6
2022-10-25T04:25:41.163Z,9.6
2022-10-25T04:28:06.284Z,9.6
2022-10-25T04:30:32.329Z,9.6
2022-10-25T04:32:57.539Z,9.6
2022-10-25T04:35:22.566Z,9.6
2022-10-25T04:37:48.697Z,9.5
2022-10-25T04:40:14.765Z,9.5
2022-10-25T04:42:40.842Z,9.5
2022-10-25T04:45:06.968Z,9.5
2022-10-25T04:47:33.039Z,9.5
2022-10-25T04:49:59.172Z,9.5
2022-10-25T04:52:25.267Z,9.5
2022-10-25T04:54:51.403Z,9.5
2022-10-25T04:57:17.421Z,9.5
2022-10-25T04:59:43.512Z,9.5
2022-10-25T05:02:09.624Z,9.5
2022-10-25T05:04:35.705Z,9.4
2022-10-25T05:07:00.864Z,9.4
2022-10-25T05:09:26.905Z,9.4
2022-10-25T05:11:53.068Z,9.4
2022-10-25T05:14:19.111Z,9.4
2022-10-25T05:16:45.196Z,9.4
2022-10-25T05:19:11.384Z,9.4
2022-10-25T05:21:37.403Z,9.4
2022-10-25T05:24:02.561Z,9.4
2022-10-25T05:26:27.635Z,9.4
2022-10-25T05:28:53.720Z,9.3
2022-10-25T05:31:18.874Z,9.3
2022-10-25T05:33:44.932Z,9.3
2022-10-25T05:36:11.114Z,9.3
2022-10-25T05:38:37.117Z,9.3
2022-10-25T05:41:03.280Z,9.2
2022-10-25T05:43:29.319Z,9.2
2022-10-25T05:45:55.416Z,9.2
2022-10-25T05:48:21.520Z,9.2
2022-10-25T05:50:47.616Z,9.2
2022-10-25T05:53:13.820Z,9.2
2022-10-25T05:55:39.790Z,9.2
2022-10-25T05:58:05.931Z,9.2
2022-10-25T06:00:31.996Z,9.2
2022-10-25T06:02:57.092Z,9.2
2022-10-25T06:05:23.208Z,9.2
2022-10-25T06:07:49.313Z,9.2
2022-10-25T06:10:15.447Z,9.2
2022-10-25T06:12:41.573Z,9.2
2022-10-25T06:15:06.662Z,9.2
2022-10-25T06:17:31.735Z,9.2
2022-10-25T06:19:57.802Z,9.3
2022-10-25T06:22:23.944Z,9.3
2022-10-25T06:24:50.021Z,9.3
2022-10-25T06:27:16.152Z,9.4
2022-10-25T06:29:42.205Z,9.4
2022-10-25T06:32:08.378Z,9.4
2022-10-25T06:34:34.386Z,9.4
2022-10-25T06:37:00.473Z,9.4
2022-10-25T06:39:26.584Z,9.5
2022-10-25T06:41:52.747Z,9.5
2022-10-25T06:44:18.787Z,9.5
2022-10-25T06:46:44.867Z,9.6
2022-10-25T06:49:09.972Z,9.6
2022-10-25T06:51:36.087Z,9.6
2022-10-25T06:54:02.161Z,9.7
2022-10-25T06:56:28.285Z,9.7
2022-10-25T06:58:54.357Z,9.7
2022-10-25T07:01:20.486Z,9.7
2022-10-25T07:03:46.546Z,9.8
2022-10-25T07:06:11.656Z,9.8
2022-10-25T07:08:36.841Z,9.8
2022-10-25T07:11:01.947Z,9.9
2022-10-25T07:13:27.019Z,9.9
2022-10-25T07:15:52.171Z,9.9
2022-10-25T07:18:17.268Z,10
2022-10-25T07:20:42.369Z,10
2022-10-25T07:23:07.550Z,10
2022-10-25T07:25:33.583Z,10.1
2022-10-25T07:27:59.664Z,10.1
2022-10-25T07:30:25.781Z,10.1
2022-10-25T07:32:51.870Z,10.1
2022-10-25T07:35:17.977Z,10.2
2022-10-25T07:37:44.052Z,10.2
2022-10-25T07:40:10.176Z,10.3
2022-10-25T07:42:36.251Z,10.3
2022-10-25T07:45:02.376Z,10.4
2022-10-25T07:47:28.450Z,10.4
2022-10-25T07:49:54.599Z,10.5
2022-10-25T07:52:20.668Z,10.5
2022-10-25T07:54:45.758Z,10.5
2022-10-25T07:57:11.866Z,10.6
2022-10-25T07:59:37.969Z,10.6
2022-10-25T08:02:04.064Z,10.6
2022-10-25T08:04:30.126Z,10.7
2022-10-25T08:06:56.327Z,10.7
2022-10-25T08:09:22.308Z,10.8
2022-10-25T08:11:47.429Z,10.8
2022-10-25T08:14:12.596Z,10.9
2022-10-25T08:16:38.627Z,10.9
2022-10-25T08:19:04.892Z,11
2022-10-25T08:21:30.956Z,11
2022-10-25T08:23:57.082Z,11.1
2022-10-25T08:26:23.090Z,11.2
2022-10-25T08:28:49.227Z,11.2
2022-10-25T08:31:15.340Z,11.3
2022-10-25T08:33:41.464Z,11.3
2022-10-25T08:36:07.597Z,11.4
2022-10-25T08:38:33.610Z,11.4
2022-10-25T08:40:59.654Z,11.5
2022-10-25T08:43:25.717Z,11.5
2022-10-25T08:45:50.807Z,11.6
2022-10-25T08:48:17.108Z,11.6
2022-10-25T08:50:43.088Z,11.7
2022-10-25T08:53:09.175Z,11.8
2022-10-25T08:55:35.260Z,11.8
2022-10-25T08:58:01.473Z,11.9
2022-10-25T09:00:27.387Z,12
2022-10-25T09:02:52.551Z,12
2022-10-25T09:05:17.654Z,12.1
2022-10-25T09:07:42.849Z,12.1
2022-10-25T09:10:07.906Z,12.2
2022-10-25T09:12:34.073Z,12.3
2022-10-25T09:15:00.055Z,12.3
2022-10-25T09:17:26.189Z,12.4
2022-10-25T09:19:52.268Z,12.4
2022-10-25T09:22:18.346Z,12.5
2022-10-25T09:24:44.429Z,12.6
2022-10-25T09:27:10.534Z,12.6
2022-10-25T09:29:36.664Z,12.7
2022-10-25T09:32:02.735Z,12.7
2022-10-25T09:34:28.875Z,12.7
2022-10-25T09:36:55.003Z,12.7
2022-10-25T09:39:21.161Z,12.8
2022-10-25T09:41:46.225Z,12.8
2022-10-25T09:44:12.345Z,12.8
2022-10-25T09:46:38.436Z,12.9
2022-10-25T09:49:04.403Z,13
2022-10-25T09:51:30.578Z,13
2022-10-25T09:53:56.600Z,13.1
2022-10-25T09:56:22.776Z,13.1
2022-10-25T09:58:47.816Z,13.2
2022-10-25T10:01:12.927Z,13.2
2022-10-25T10:03:38.130Z,13.3
2022-10-25T10:06:03.197Z,13.3
2022-10-25T10:08:29.238Z,13.3
2022-10-25T10:10:55.396Z,13.3
2022-10-25T10:13:21.516Z,13.4
2022-10-25T10:15:47.568Z,13.4
2022-10-25T10:18:13.620Z,13.5
2022-10-25T10:20:39.700Z,13.5
2022-10-25T10:23:05.814Z,13.5
2022-10-25T10:25:31.910Z,13.6
2022-10-25T10:27:58.029Z,13.6
2022-10-25T10:30:24.100Z,13.7
2022-10-25T10:32:50.256Z,13.7
2022-10-25T10:35:16.359Z,13.7
2022-10-25T10:37:41.420Z,13.8
2022-10-25T10:40:07.502Z,13.8
2022-10-25T10:42:33.596Z,13.9
2022-10-25T10:44:59.748Z,13.9
2022-10-25T10:47:25.767Z,14
2022-10-25T10:49:51.912Z,14
2022-10-25T10:52:17.951Z,14
2022-10-25T10:54:43.068Z,14.1
2022-10-25T10:57:08.292Z,14.1
2022-10-25T10:59:33.437Z,14.2
2022-10-25T11:01:58.572Z,14.2
2022-10-25T11:04:24.695Z,14.3
2022-10-25T11:06:50.754Z,14.3
2022-10-25T11:09:16.776Z,14.4
2022-10-25T11:11:42.883Z,14.4
2022-10-25T11:14:09.099Z,14.4
2022-10-25T11:16:35.111Z,14.5
2022-10-25T11:19:01.230Z,14.5
2022-10-25T11:21:27.212Z,14.6
2022-10-25T11:23:53.297Z,14.6
2022-10-25T11:26:19.408Z,14.6
2022-10-25T11:28:45.557Z,14.7
2022-10-25T11:31:11.613Z,14.7
2022-10-25T11:33:36.740Z,14.8
2022-10-25T11:36:02.778Z,14.9
2022-10-25T11:38:28.925Z,14.9
2022-10-25T11:40:54.963Z,15
2022-10-25T11:43:21.100Z,15
2022-10-25T11:45:47.212Z,15.1
2022-10-25T11:48:13.316Z,15.1
2022-10-25T11:50:39.361Z,15.2
2022-10-25T11:53:05.603Z,15.2
2022-10-25T11:55:30.630Z,15.3
2022-10-25T11:57:55.673Z,15.3
2022-10-25T12:00:20.866Z,15.4
2022-10-25T12:02:46.071Z,15.4
2022-10-25T12:05:11.173Z,15.4
2022-10-25T12:07:36.214Z,15.5
2022-10-25T12:10:02.284Z,15.5
2022-10-25T12:12:28.437Z,15.6
2022-10-25T12:14:54.473Z,15.6
2022-10-25T12:17:20.541Z,15.6
2022-10-25T12:19:46.669Z,15.7
2022-10-25T12:22:12.816Z,15.8
2022-10-25T12:24:38.810Z,15.9
2022-10-25T12:27:04.943Z,16
2022-10-25T12:29:31.022Z,16.1
2022-10-25T12:31:57.115Z,16.3
2022-10-25T12:34:23.187Z,16.4
2022-10-25T12:36:49.350Z,16.5
2022-10-25T12:39:14.413Z,16.7
2022-10-25T12:41:40.587Z,16.8
2022-10-25T12:44:06.633Z,16.8
2022-10-25T12:46:32.695Z,16.9
2022-10-25T12:48:58.799Z,16.9
2022-10-25T12:51:24.923Z,16.9
2022-10-25T12:53:51.086Z,16.9
2022-10-25T12:56:16.081Z,16.9
2022-10-25T12:58:41.256Z,17
2022-10-25T13:01:07.328Z,17
2022-10-25T13:03:33.398Z,17.1
2022-10-25T13:05:59.590Z,17.1
2022-10-25T13:08:25.588Z,17.2
2022-10-25T13:10:51.882Z,17.3
2022-10-25T13:15:44.011Z,17.5
2022-10-25T13:18:10.088Z,17.6
2022-10-25T13:20:36.076Z,17.7
2022-10-25T13:23:02.180Z,17.7
2022-10-25T13:25:28.362Z,17.7
2022-10-25T13:27:54.480Z,17.7
2022-10-25T13:30:19.598Z,17.7
2022-10-25T13:32:45.543Z,17.6
2022-10-25T13:35:11.664Z,17.6
2022-10-25T13:37:37.876Z,17.5
2022-10-25T13:40:02.911Z,17.5
2022-10-25T13:42:28.962Z,17.4
2022-10-25T13:44:55.200Z,17.4
2022-10-25T13:47:21.147Z,17.4
2022-10-25T13:49:46.273Z,17.4
2022-10-25T13:52:11.476Z,17.3
2022-10-25T13:54:36.521Z,17.3
2022-10-25T13:57:01.618Z,17.3
2022-10-25T13:59:27.765Z,17.3
2022-10-25T14:01:52.877Z,17.2
2022-10-25T14:04:17.947Z,17.2
2022-10-25T14:06:44.157Z,17.2
2022-10-25T14:09:10.153Z,17.2
2022-10-25T14:11:36.399Z,17.1
2022-10-25T14:14:02.328Z,17.1
2022-10-25T14:16:28.455Z,17
2022-10-25T14:18:54.526Z,16.9
2022-10-25T14:21:20.593Z,16.9
2022-10-25T14:23:46.727Z,16.8
2022-10-25T14:26:12.814Z,16.8
2022-10-25T14:28:38.938Z,16.8
2022-10-25T14:31:05.033Z,16.7
2022-10-25T14:33:31.147Z,16.7
2022-10-25T14:35:56.300Z,16.7
2022-10-25T14:38:22.350Z,16.6
2022-10-25T14:40:48.483Z,16.6
2022-10-25T14:43:14.474Z,16.6
2022-10-25T14:45:40.630Z,16.5
2022-10-25T14:48:06.666Z,16.5
2022-10-25T14:50:37.257Z,16.5
2022-10-25T14:52:57.901Z,16.4
2022-10-25T14:55:23.026Z,16.4
2022-10-25T14:57:49.144Z,16.4
2022-10-25T15:00:15.250Z,16.3
2022-10-25T15:02:40.411Z,16.3
2022-10-25T15:05:05.564Z,16.3
2022-10-25T15:07:31.518Z,16.2
2022-10-25T15:09:57.679Z,16.2
2022-10-25T15:12:23.743Z,16.1
2022-10-25T15:14:49.832Z,16.1
2022-10-25T15:17:16.064Z,16
2022-10-25T15:19:42.115Z,15.9
2022-10-25T15:22:08.145Z,15.9
2022-10-25T15:24:34.332Z,15.8
2022-10-25T15:27:00.445Z,15.7
2022-10-25T15:29:26.380Z,15.7
2022-10-25T15:31:52.617Z,15.6
2022-10-25T15:34:18.673Z,15.5
2022-10-25T15:36:43.781Z,15.5
2022-10-25T15:39:09.918Z,15.4
2022-10-25T15:41:35.906Z,15.3
2022-10-25T15:44:02.121Z,15.2
2022-10-25T15:46:28.089Z,15.2
2022-10-25T15:51:20.379Z,15
2022-10-25T15:53:46.460Z,14.9
2022-10-25T15:56:11.501Z,14.8
2022-10-25T15:58:36.640Z,14.8
2022-10-25T16:01:01.853Z,14.7
2022-10-25T16:03:26.861Z,14.6
2022-10-25T16:05:52.903Z,14.5
2022-10-25T16:08:19.057Z,14.4
2022-10-25T16:10:45.140Z,14.3
2022-10-25T16:13:11.189Z,14.2
2022-10-25T16:15:37.333Z,14.1
2022-10-25T16:18:03.381Z,14
2022-10-25T16:20:29.504Z,14
2022-10-25T16:22:55.618Z,13.9
2022-10-25T16:25:21.746Z,13.8
2022-10-25T16:27:47.789Z,13.7
2022-10-25T16:30:13.938Z,13.6
2022-10-25T16:32:39.962Z,13.5
2022-10-25T16:35:05.178Z,13.4
2022-10-25T16:37:31.209Z,13.3
2022-10-25T16:39:57.307Z,13.3
2022-10-25T16:42:23.402Z,13.2
2022-10-25T16:44:49.470Z,13.1
2022-10-25T16:47:15.600Z,13.1
2022-10-25T16:49:41.716Z,13
2022-10-25T16:52:06.777Z,13
2022-10-25T16:54:31.964Z,12.9
2022-10-25T16:56:57.062Z,12.8
2022-10-25T16:59:22.141Z,12.8
2022-10-25T17:01:48.298Z,12.7
2022-10-25T17:04:14.295Z,12.7
2022-10-25T17:06:40.450Z,12.6
2022-10-25T17:09:06.635Z,12.6
2022-10-25T17:11:32.675Z,12.5
2022-10-25T17:13:58.757Z,12.4
2022-10-25T17:16:24.799Z,12.4
2022-10-25T17:18:50.898Z,12.3
2022-10-25T17:21:16.965Z,12.3
2022-10-25T17:23:43.096Z,12.2
2022-10-25T17:26:09.161Z,12.2
2022-10-25T17:28:35.337Z,12.2
2022-10-25T17:31:00.374Z,12.1
2022-10-25T17:33:26.540Z,12.1
2022-10-25T17:35:52.584Z,12
2022-10-25T17:38:18.731Z,12
2022-10-25T17:40:44.912Z,11.9
2022-10-25T17:43:10.931Z,11.9
2022-10-25T17:45:37.000Z,11.9
2022-10-25T17:48:02.062Z,11.8
2022-10-25T17:50:27.227Z,11.8
2022-10-25T17:52:52.380Z,11.8
2022-10-25T17:55:17.425Z,11.7
2022-10-25T17:57:43.503Z,11.7
2022-10-25T18:00:09.771Z,11.7
2022-10-25T18:02:35.698Z,11.6
2022-10-25T18:05:01.860Z,11.6
2022-10-25T18:07:27.873Z,11.6
2022-10-25T18:09:54.040Z,11.5
2022-10-25T18:12:20.105Z,11.5
2022-10-25T18:14:46.222Z,11.5
2022-10-25T18:17:12.277Z,11.5
2022-10-25T18:19:38.350Z,11.5
2022-10-25T18:22:04.488Z,11.4
2022-10-25T18:24:30.568Z,11.4
2022-10-25T18:26:55.669Z,11.4
2022-10-25T18:29:21.781Z,11.4
2022-10-25T18:31:47.848Z,11.4
2022-10-25T18:34:14.011Z,11.3
2022-10-25T18:36:40.077Z,11.3
2022-10-25T18:39:06.180Z,11.3
2022-10-25T18:41:32.222Z,11.3
2022-10-25T18:43:57.372Z,11.3
2022-10-25T18:46:22.563Z,11.3
2022-10-25T18:48:47.612Z,11.3
2022-10-25T18:51:12.732Z,11.3
2022-10-25T18:53:38.811Z,11.3
2022-10-25T18:56:04.892Z,11.3
2022-10-25T18:58:31.038Z,11.3
2022-10-25T19:00:57.080Z,11.3
2022-10-25T19:03:23.219Z,11.3
2022-10-25T19:05:49.271Z,11.2
2022-10-25T19:08:15.449Z,11.2
2022-10-25T19:10:41.502Z,11.2
2022-10-25T19:13:07.558Z,11.2
2022-10-25T19:15:33.673Z,11.2
2022-10-25T19:17:59.730Z,11.2
2022-10-25T19:20:25.878Z,11.2
2022-10-25T19:22:50.943Z,11.2
2022-10-25T19:25:17.107Z,11.2
2022-10-25T19:27:43.160Z,11.1
2022-10-25T19:30:09.238Z,11.1
2022-10-25T19:32:35.353Z,11.1
2022-10-25T19:35:01.440Z,11.1
2022-10-25T19:37:27.625Z,11.1
2022-10-25T19:39:52.654Z,11.1
2022-10-25T19:42:17.746Z,11.1
2022-10-25T19:44:43.908Z,11.1
2022-10-25T19:47:09.965Z,11.1
2022-10-25T19:49:36.110Z,11.1
2022-10-25T19:52:02.144Z,11.1
2022-10-25T19:54:28.286Z,11.1
2022-10-25T19:56:54.331Z,11.1
2022-10-25T19:59:20.439Z,11.1
2022-10-25T20:01:46.535Z,11.1
2022-10-25T20:04:12.658Z,11.1
2022-10-25T20:06:38.733Z,11
2022-10-25T20:09:04.825Z,11
2022-10-25T20:11:30.929Z,11
2022-10-25T20:13:56.037Z,11
2022-10-25T20:16:22.183Z,11
2022-10-25T20:18:48.234Z,11
2022-10-25T20:21:14.364Z,11
2022-10-25T20:23:40.418Z,11
2022-10-25T20:26:06.483Z,10.9
2022-10-25T20:28:32.621Z,10.9
2022-10-25T20:30:57.718Z,10.9
2022-10-25T20:33:22.826Z,10.9
2022-10-25T20:35:48.001Z,10.9
2022-10-25T20:38:13.065Z,10.9
2022-10-25T20:40:39.167Z,10.9
2022-10-25T20:43:04.330Z,10.9
2022-10-25T20:45:29.441Z,10.8
2022-10-25T20:47:55.549Z,10.8
2022-10-25T20:50:21.591Z,10.8
2022-10-25T20:52:47.686Z,10.8
2022-10-25T20:55:13.841Z,10.8
2022-10-25T20:57:39.859Z,10.8
2022-10-25T21:00:06.006Z,10.8
2022-10-25T21:02:32.107Z,10.8
2022-10-25T21:04:58.227Z,10.8
2022-10-25T21:07:24.242Z,10.8
2022-10-25T21:09:50.352Z,10.8
2022-10-25T21:12:16.486Z,10.8
2022-10-25T21:14:42.536Z,10.8
2022-10-25T21:17:07.684Z,10.8
2022-10-25T21:19:33.740Z,10.8
2022-10-25T21:21:59.887Z,10.8
2022-10-25T21:24:25.941Z,10.8
2022-10-25T21:26:52.011Z,10.8
2022-10-25T21:29:18.134Z,10.8
2022-10-25T21:31:44.223Z,10.7
2022-10-25T21:34:09.369Z,10.7
2022-10-25T21:36:34.469Z,10.7
2022-10-25T21:39:00.605Z,10.7
2022-10-25T21:41:26.676Z,10.7
2022-10-25T21:43:52.745Z,10.7
2022-10-25T21:46:18.858Z,10.6
2022-10-25T21:48:44.028Z,10.6
2022-10-25T21:51:10.115Z,10.6
2022-10-25T21:53:36.141Z,10.7
2022-10-25T21:56:02.230Z,10.7
2022-10-25T21:58:28.338Z,10.7
2022-10-25T22:00:54.412Z,10.7
2022-10-25T22:03:20.541Z,10.8
2022-10-25T22:05:46.616Z,10.8
2022-10-25T22:08:12.743Z,10.8
2022-10-25T22:10:38.813Z,10.8
2022-10-25T22:13:04.949Z,10.8
2022-10-25T22:15:30.989Z,10.9
2022-10-25T22:17:57.194Z,10.9
2022-10-25T22:20:22.227Z,10.9
2022-10-25T22:22:48.317Z,10.9
2022-10-25T22:25:13.473Z,11
2022-10-25T22:27:38.554Z,11
2022-10-25T22:30:03.659Z,11
2022-10-25T22:32:28.843Z,11
2022-10-25T22:34:54.879Z,11.1
2022-10-25T22:37:20.965Z,11.1
2022-10-25T22:39:47.082Z,11.1
2022-10-25T22:42:13.184Z,11.1
2022-10-25T22:44:39.283Z,11.1
2022-10-25T22:47:05.354Z,11.2
2022-10-25T22:49:31.534Z,11.2
2022-10-25T22:51:57.541Z,11.2
2022-10-25T22:54:23.617Z,11.2
2022-10-25T22:56:49.742Z,11.2
2022-10-25T22:59:15.854Z,11.3
2022-10-25T23:01:41.939Z,11.3
2022-10-25T23:04:07.021Z,11.3
2022-10-25T23:06:33.172Z,11.3
2022-10-25T23:08:59.213Z,11.3
2022-10-25T23:11:25.306Z,11.3
2022-10-25T23:13:51.416Z,11.3
2022-10-25T23:16:17.515Z,11.3
2022-10-25T23:18:43.615Z,11.4
2022-10-25T23:21:08.724Z,11.4
2022-10-25T23:23:33.940Z,11.4
2022-10-25T23:25:58.986Z,11.4
2022-10-25T23:28:24.070Z,11.4
2022-10-25T23:30:50.153Z,11.4
2022-10-25T23:33:16.298Z,11.4
2022-10-25T23:35:42.353Z,11.4
2022-10-25T23:38:08.466Z,11.4
2022-10-25T23:40:34.555Z,11.4
2022-10-25T23:43:00.714Z,11.4
2022-10-25T23:45:26.773Z,11.4
2022-10-25T23:47:52.881Z,11.4
2022-10-25T23:50:18.931Z,11.4
2022-10-25T23:52:45.075Z,11.4
2022-10-25T23:55:11.122Z,11.4
2022-10-25T23:57:37.221Z,11.4
